createdAt,value
2023-11-14T00:00:29.643Z,10.74
2023-11-14T00:02:56.056Z,10.68
2023-11-14T00:05:22.560Z,10.73
2023-11-14T00:07:49.099Z,10.67
2023-11-14T00:10:17.306Z,10.62
2023-11-14T00:12:43.711Z,10.58
2023-11-14T00:15:10.263Z,10.52
2023-11-14T00:17:36.819Z,10.52
2023-11-14T00:20:03.620Z,10.52
2023-11-14T00:22:30.132Z,10.50
2023-11-14T00:24:56.507Z,10.45
2023-11-14T00:27:22.956Z,10.40
2023-11-14T00:29:49.293Z,10.34
2023-11-14T00:32:15.710Z,10.29
2023-11-14T00:34:42.268Z,10.28
2023-11-14T00:37:08.628Z,10.25
2023-11-14T00:39:35.031Z,10.23
2023-11-14T00:42:01.393Z,10.20
2023-11-14T00:44:27.847Z,10.15
2023-11-14T00:46:54.428Z,10.12
2023-11-14T00:49:20.805Z,10.07
2023-11-14T00:51:47.155Z,10.07
2023-11-14T00:54:13.639Z,10.08
2023-11-14T00:56:39.989Z,10.09
2023-11-14T00:59:06.371Z,10.10
2023-11-14T01:01:33.012Z,10.04
2023-11-14T01:03:59.471Z,10.03
2023-11-14T01:06:25.866Z,10.00
2023-11-14T01:08:54.201Z,9.94
2023-11-14T01:11:20.825Z,9.88
2023-11-14T01:13:47.307Z,9.85
2023-11-14T01:16:16.031Z,9.81
2023-11-14T01:18:42.402Z,9.75
2023-11-14T01:21:09.180Z,9.68
2023-11-14T01:23:35.630Z,9.62
2023-11-14T01:26:03.077Z,9.54
2023-11-14T01:28:29.599Z,9.44
2023-11-14T01:30:56.030Z,9.36
2023-11-14T01:33:22.512Z,9.31
2023-11-14T01:35:48.989Z,9.25
2023-11-14T01:38:15.332Z,9.17
2023-11-14T01:40:52.512Z,9.10
2023-11-14T01:43:19.053Z,9.04
2023-11-14T01:45:45.457Z,8.98
2023-11-14T01:48:12.715Z,8.91
2023-11-14T01:50:39.539Z,8.93
2023-11-14T01:53:06.070Z,8.97
2023-11-14T01:55:32.659Z,9.00
2023-11-14T01:57:59.112Z,9.06
2023-11-14T02:00:25.992Z,9.11
2023-11-14T02:02:53.369Z,9.17
2023-11-14T02:05:20.533Z,9.23
2023-11-14T02:07:47.757Z,9.25
2023-11-14T02:10:14.169Z,9.23
2023-11-14T02:12:40.595Z,9.27
2023-11-14T02:15:07.740Z,9.31
2023-11-14T02:17:34.271Z,9.27
2023-11-14T02:20:00.807Z,9.28
2023-11-14T02:22:27.551Z,9.24
2023-11-14T02:24:54.315Z,9.22
2023-11-14T02:27:20.870Z,9.17
2023-11-14T02:29:48.660Z,9.12
2023-11-14T02:32:15.124Z,9.06
2023-11-14T02:34:41.482Z,9.02
2023-11-14T02:37:07.976Z,8.98
2023-11-14T02:39:34.386Z,8.90
2023-11-14T02:42:00.938Z,8.82
2023-11-14T02:44:27.469Z,8.80
2023-11-14T02:46:54.610Z,8.74
2023-11-14T02:49:42.758Z,8.68
2023-11-14T02:52:09.118Z,8.63
2023-11-14T02:54:35.532Z,8.56
2023-11-14T02:57:01.967Z,8.49
2023-11-14T02:59:28.305Z,8.47
2023-11-14T03:01:54.715Z,8.46
2023-11-14T03:04:21.060Z,8.41
2023-11-14T03:06:47.519Z,8.38
2023-11-14T03:09:13.875Z,8.35
2023-11-14T03:11:40.349Z,8.33
2023-11-14T03:14:06.753Z,8.28
2023-11-14T03:16:33.224Z,8.25
2023-11-14T03:18:59.654Z,8.20
2023-11-14T03:21:26.022Z,8.16
2023-11-14T03:23:52.381Z,8.11
2023-11-14T03:26:18.723Z,8.14
2023-11-14T03:28:45.155Z,8.19
2023-11-14T03:31:11.547Z,8.20
2023-11-14T03:33:38.341Z,8.19
2023-11-14T03:36:05.299Z,8.17
2023-11-14T03:38:31.713Z,8.27
2023-11-14T03:40:58.076Z,8.29
2023-11-14T03:43:24.583Z,8.33
2023-11-14T03:45:50.968Z,8.35
2023-11-14T03:48:17.359Z,8.36
2023-11-14T03:50:43.693Z,8.40
2023-11-14T03:53:10.144Z,8.40
2023-11-14T03:55:36.546Z,8.44
2023-11-14T03:58:02.922Z,8.44
2023-11-14T04:00:29.393Z,8.47
2023-11-14T04:02:55.893Z,8.49
2023-11-14T04:05:22.315Z,8.54
2023-11-14T04:07:48.823Z,8.57
2023-11-14T04:10:15.314Z,8.58
2023-11-14T04:12:41.787Z,8.59
2023-11-14T04:15:08.656Z,8.55
2023-11-14T04:17:35.182Z,8.52
2023-11-14T04:20:01.704Z,8.49
2023-11-14T04:22:28.090Z,8.43
2023-11-14T04:24:54.513Z,8.36
2023-11-14T04:27:20.964Z,8.32
2023-11-14T04:29:47.466Z,8.24
2023-11-14T04:32:14.003Z,8.20
2023-11-14T04:34:40.379Z,8.17
2023-11-14T04:37:06.711Z,8.15
2023-11-14T04:39:33.333Z,8.11
2023-11-14T04:41:59.836Z,8.03
2023-11-14T04:44:26.329Z,7.96
2023-11-14T04:46:52.854Z,7.93
2023-11-14T04:49:19.298Z,7.92
2023-11-14T04:51:45.629Z,7.93
2023-11-14T04:54:12.056Z,7.94
2023-11-14T04:56:38.401Z,7.92
2023-11-14T04:59:04.968Z,7.89
2023-11-14T05:01:31.425Z,7.86
2023-11-14T05:03:57.879Z,7.84
2023-11-14T05:06:24.240Z,7.82
2023-11-14T05:08:50.714Z,7.83
2023-11-14T05:11:17.208Z,7.86
2023-11-14T05:13:44.380Z,7.88
2023-11-14T05:16:19.206Z,7.89
2023-11-14T05:18:49.027Z,7.89
2023-11-14T05:21:15.391Z,7.88
2023-11-14T05:23:41.725Z,7.88
2023-11-14T05:26:08.484Z,7.95
2023-11-14T05:28:38.152Z,8.06
2023-11-14T05:31:04.558Z,8.17
2023-11-14T05:33:31.058Z,8.25
2023-11-14T05:35:57.426Z,8.36
2023-11-14T05:38:23.867Z,8.41
2023-11-14T05:40:50.381Z,8.49
2023-11-14T05:43:17.580Z,8.51
2023-11-14T05:45:44.326Z,8.54
2023-11-14T05:48:10.812Z,8.60
2023-11-14T05:50:38.333Z,8.64
2023-11-14T05:53:04.705Z,8.70
2023-11-14T05:55:31.063Z,8.77
2023-11-14T05:58:01.032Z,8.80
2023-11-14T06:00:27.388Z,8.86
2023-11-14T06:02:54.967Z,8.92
2023-11-14T06:05:21.283Z,9.00
2023-11-14T06:07:47.728Z,9.06
2023-11-14T06:10:14.063Z,9.12
2023-11-14T06:12:40.408Z,9.16
2023-11-14T06:15:08.052Z,9.23
2023-11-14T06:17:34.500Z,9.28
2023-11-14T06:20:01.028Z,9.32
2023-11-14T06:22:27.373Z,9.37
2023-11-14T06:24:54.082Z,9.40
2023-11-14T06:27:20.428Z,9.43
2023-11-14T06:29:47.255Z,9.42
2023-11-14T06:32:13.563Z,9.41
2023-11-14T06:34:40.277Z,9.45
2023-11-14T06:37:06.739Z,9.46
2023-11-14T06:39:33.150Z,9.47
2023-11-14T06:41:59.494Z,9.47
2023-11-14T06:44:25.810Z,9.48
2023-11-14T06:46:53.505Z,9.50
2023-11-14T06:49:20.144Z,9.49
2023-11-14T06:51:46.624Z,9.56
2023-11-14T06:54:12.968Z,9.54
2023-11-14T06:56:39.318Z,9.56
2023-11-14T06:59:05.820Z,9.58
2023-11-14T07:01:32.191Z,9.59
2023-11-14T07:04:00.294Z,9.58
2023-11-14T07:06:26.736Z,9.62
2023-11-14T07:08:53.897Z,9.68
2023-11-14T07:11:20.447Z,9.75
2023-11-14T07:13:46.804Z,9.81
2023-11-14T07:16:13.655Z,9.89
2023-11-14T07:18:40.930Z,9.98
2023-11-14T07:21:07.845Z,10.04
2023-11-14T07:23:34.181Z,10.11
2023-11-14T07:26:00.944Z,10.18
2023-11-14T07:28:27.418Z,10.21
2023-11-14T07:30:53.902Z,10.21
2023-11-14T07:33:20.247Z,10.24
2023-11-14T07:35:46.643Z,10.31
2023-11-14T07:38:13.138Z,10.41
2023-11-14T07:40:39.600Z,10.37
2023-11-14T07:43:05.965Z,10.42
2023-11-14T07:45:32.924Z,10.40
2023-11-14T07:47:59.811Z,10.54
2023-11-14T07:50:26.734Z,10.53
2023-11-14T07:52:53.134Z,10.52
2023-11-14T07:55:20.030Z,10.45
2023-11-14T07:57:46.380Z,10.48
2023-11-14T08:00:14.921Z,10.47
2023-11-14T08:02:42.710Z,10.47
2023-11-14T08:05:09.871Z,10.54
2023-11-14T08:07:36.619Z,10.57
2023-11-14T08:10:03.124Z,10.70
2023-11-14T08:12:29.472Z,10.83
2023-11-14T08:14:55.862Z,10.92
2023-11-14T08:17:22.246Z,10.99
2023-11-14T08:19:48.714Z,11.05
2023-11-14T08:22:15.114Z,11.04
2023-11-14T08:24:41.465Z,11.08
2023-11-14T08:27:08.665Z,11.06
2023-11-14T08:29:37.888Z,11.07
2023-11-14T08:32:04.583Z,11.16
2023-11-14T08:34:31.316Z,11.17
2023-11-14T08:36:57.704Z,11.23
2023-11-14T08:39:26.699Z,11.26
2023-11-14T08:41:54.003Z,11.38
2023-11-14T08:44:20.394Z,11.36
2023-11-14T08:46:46.840Z,11.50
2023-11-14T08:49:13.429Z,11.44
2023-11-14T08:51:39.920Z,11.45
2023-11-14T08:54:06.532Z,11.50
2023-11-14T08:56:32.910Z,11.42
2023-11-14T08:58:59.296Z,11.47
2023-11-14T09:01:25.753Z,11.55
2023-11-14T09:03:52.564Z,11.51
2023-11-14T09:06:18.911Z,11.60
2023-11-14T09:08:45.267Z,11.53
2023-11-14T09:11:12.648Z,11.58
2023-11-14T09:13:39.096Z,11.53
2023-11-14T09:16:06.440Z,11.58
2023-11-14T09:18:32.884Z,11.53
2023-11-14T09:20:59.315Z,11.59
2023-11-14T09:23:26.154Z,11.66
2023-11-14T09:25:52.521Z,11.81
2023-11-14T09:28:21.255Z,11.89
2023-11-14T09:30:48.520Z,11.94
2023-11-14T09:33:14.894Z,12.02
2023-11-14T09:35:41.633Z,12.06
2023-11-14T09:38:08.895Z,12.05
2023-11-14T09:40:35.400Z,12.12
2023-11-14T09:43:02.275Z,12.06
2023-11-14T09:45:28.786Z,12.08
2023-11-14T09:47:55.517Z,12.12
2023-11-14T09:50:23.078Z,12.18
2023-11-14T09:52:53.072Z,12.35
2023-11-14T09:55:19.551Z,12.40
2023-11-14T10:00:14.751Z,12.51
2023-11-14T10:02:41.331Z,12.54
2023-11-14T10:05:14.573Z,12.65
2023-11-14T10:07:44.141Z,12.70
2023-11-14T10:10:14.820Z,12.60
2023-11-14T10:12:41.370Z,12.70
2023-11-14T10:15:10.369Z,12.86
2023-11-14T10:17:55.178Z,12.93
2023-11-14T10:20:26.299Z,12.86
2023-11-14T10:23:04.124Z,12.79
2023-11-14T10:25:34.247Z,12.91
2023-11-14T10:28:05.878Z,12.85
2023-11-14T10:30:45.281Z,12.90
2023-11-14T10:33:13.324Z,13.03
2023-11-14T10:35:42.709Z,13.11
2023-11-14T10:38:23.841Z,13.01
2023-11-14T10:40:53.520Z,12.83
2023-11-14T10:43:26.744Z,12.79
2023-11-14T10:45:54.093Z,12.67
2023-11-14T10:48:25.066Z,12.78
2023-11-14T10:50:52.431Z,12.45
2023-11-14T10:53:19.391Z,12.59
2023-11-14T10:55:50.790Z,12.47
2023-11-14T10:58:19.051Z,12.43
2023-11-14T11:00:45.509Z,12.25
2023-11-14T11:03:14.877Z,12.23
2023-11-14T11:05:42.124Z,12.19
2023-11-14T11:08:08.578Z,12.19
2023-11-14T11:10:36.425Z,12.20
2023-11-14T11:13:15.224Z,12.14
2023-11-14T11:15:47.146Z,12.16
2023-11-14T11:18:14.327Z,12.25
2023-11-14T11:20:41.128Z,12.19
2023-11-14T11:23:10.301Z,12.16
2023-11-14T11:25:38.334Z,12.12
2023-11-14T11:28:19.762Z,12.10
2023-11-14T11:31:11.832Z,12.17
2023-11-14T11:33:39.906Z,12.16
2023-11-14T11:36:21.449Z,12.14
2023-11-14T11:38:58.807Z,12.23
2023-11-14T11:41:29.974Z,12.28
2023-11-14T11:44:12.640Z,12.21
2023-11-14T11:46:41.329Z,12.24
2023-11-14T11:49:10.656Z,12.32
2023-11-14T11:51:39.073Z,12.37
2023-11-14T11:54:28.305Z,12.31
2023-11-14T11:57:06.776Z,12.38
2023-11-14T11:59:45.130Z,12.47
2023-11-14T12:02:15.748Z,12.46
2023-11-14T12:04:42.317Z,12.63
2023-11-14T12:07:09.123Z,12.67
2023-11-14T12:09:38.963Z,12.81
2023-11-14T12:12:05.742Z,12.84
2023-11-14T12:14:32.665Z,12.94
2023-11-14T12:16:59.527Z,12.98
2023-11-14T12:19:26.833Z,12.99
2023-11-14T12:21:55.357Z,13.22
2023-11-14T12:24:21.769Z,13.33
2023-11-14T12:26:48.222Z,13.44
2023-11-14T12:29:15.996Z,13.61
2023-11-14T12:31:53.426Z,13.66
2023-11-14T12:34:29.963Z,13.48
2023-11-14T12:37:11.329Z,13.56
2023-11-14T12:39:38.379Z,13.54
2023-11-14T12:42:05.279Z,13.61
2023-11-14T12:44:34.316Z,13.46
2023-11-14T12:47:00.780Z,13.40
2023-11-14T12:49:27.186Z,13.39
2023-11-14T12:51:54.465Z,13.33
2023-11-14T12:54:24.871Z,13.25
2023-11-14T12:56:53.063Z,13.24
2023-11-14T12:59:20.277Z,13.09
2023-11-14T13:01:49.230Z,13.09
2023-11-14T13:04:15.969Z,13.06
2023-11-14T13:06:47.238Z,13.12
2023-11-14T13:09:16.272Z,13.08
2023-11-14T13:11:43.257Z,13.05
2023-11-14T13:14:10.510Z,13.09
2023-11-14T13:16:36.987Z,13.13
2023-11-14T13:19:03.965Z,13.11
2023-11-14T13:21:30.541Z,13.15
2023-11-14T13:23:57.342Z,13.18
2023-11-14T13:26:23.887Z,13.22
2023-11-14T13:28:50.719Z,13.18
2023-11-14T13:31:17.987Z,13.16
2023-11-14T13:33:45.092Z,13.01
2023-11-14T13:36:11.488Z,12.99
2023-11-14T13:38:38.425Z,12.93
2023-11-14T13:41:16.103Z,12.84
2023-11-14T13:43:43.317Z,12.89
2023-11-14T13:46:20.657Z,12.86
2023-11-14T13:48:53.455Z,12.85
2023-11-14T13:51:19.912Z,12.85
2023-11-14T13:53:46.296Z,12.78
2023-11-14T13:56:12.822Z,12.72
2023-11-14T13:58:39.289Z,12.73
2023-11-14T14:01:06.232Z,12.74
2023-11-14T14:03:33.116Z,12.65
2023-11-14T14:06:01.026Z,12.65
2023-11-14T14:08:27.788Z,12.61
2023-11-14T14:10:54.142Z,12.57
2023-11-14T14:13:20.544Z,12.56
2023-11-14T14:15:47.191Z,12.57
2023-11-14T14:18:13.868Z,12.65
2023-11-14T14:20:40.569Z,12.69
2023-11-14T14:23:06.950Z,12.72
2023-11-14T14:25:33.798Z,12.69
2023-11-14T14:28:00.178Z,12.58
2023-11-14T14:30:27.804Z,12.63
2023-11-14T14:32:54.182Z,12.61
2023-11-14T14:35:20.847Z,12.51
2023-11-14T14:37:47.216Z,12.48
2023-11-14T14:40:13.818Z,12.48
2023-11-14T14:42:40.171Z,12.45
2023-11-14T14:45:10.849Z,12.37
2023-11-14T14:47:37.936Z,12.36
2023-11-14T14:50:05.740Z,12.31
2023-11-14T14:52:32.822Z,12.30
2023-11-14T14:54:59.428Z,12.28
2023-11-14T14:57:25.761Z,12.20
2023-11-14T14:59:52.120Z,12.18
2023-11-14T15:02:18.534Z,12.17
2023-11-14T15:04:44.892Z,12.08
2023-11-14T15:07:11.638Z,12.00
2023-11-14T15:09:37.970Z,11.96
2023-11-14T15:12:05.236Z,11.90
2023-11-14T15:14:33.073Z,11.95
2023-11-14T15:16:59.720Z,11.94
2023-11-14T15:19:26.068Z,11.93
2023-11-14T15:21:52.422Z,11.86
2023-11-14T15:24:18.783Z,11.87
2023-11-14T15:26:45.106Z,11.87
2023-11-14T15:29:11.461Z,11.85
2023-11-14T15:31:37.831Z,11.82
2023-11-14T15:34:04.292Z,11.75
2023-11-14T15:36:31.661Z,11.67
2023-11-14T15:38:58.593Z,11.64
2023-11-14T15:41:25.514Z,11.62
2023-11-14T15:43:52.012Z,11.55
2023-11-14T15:46:18.461Z,11.51
2023-11-14T15:48:45.116Z,11.46
2023-11-14T15:51:11.458Z,11.45
2023-11-14T15:53:37.806Z,11.44
2023-11-14T15:56:04.664Z,11.41
2023-11-14T15:58:31.409Z,11.38
2023-11-14T16:00:58.169Z,11.36
2023-11-14T16:03:24.922Z,11.35
2023-11-14T16:05:51.415Z,11.33
2023-11-14T16:08:17.858Z,11.31
2023-11-14T16:10:44.227Z,11.25
2023-11-14T16:13:10.763Z,11.27
2023-11-14T16:15:37.108Z,11.26
2023-11-14T16:18:03.600Z,11.26
2023-11-14T16:20:30.038Z,11.26
2023-11-14T16:22:56.438Z,11.23
2023-11-14T16:25:23.171Z,11.24
2023-11-14T16:27:49.605Z,11.20
2023-11-14T16:30:16.065Z,11.20
2023-11-14T16:32:42.487Z,11.20
2023-11-14T16:35:09.140Z,11.24
2023-11-14T16:37:36.414Z,11.22
2023-11-14T16:40:02.815Z,11.16
2023-11-14T16:42:29.211Z,11.13
2023-11-14T16:44:55.693Z,11.14
2023-11-14T16:47:22.069Z,11.15
2023-11-14T16:49:48.450Z,11.18
2023-11-14T16:52:14.789Z,11.03
2023-11-14T16:54:43.999Z,11.02
2023-11-14T16:57:10.655Z,10.98
2023-11-14T16:59:37.022Z,10.93
2023-11-14T17:02:03.430Z,10.90
2023-11-14T17:04:29.841Z,10.88
2023-11-14T17:06:56.496Z,10.86
2023-11-14T17:09:22.882Z,10.81
2023-11-14T17:11:49.300Z,10.76
2023-11-14T17:14:15.670Z,10.75
2023-11-14T17:16:42.075Z,10.71
2023-11-14T17:19:08.431Z,10.71
2023-11-14T17:21:34.815Z,10.70
2023-11-14T17:24:01.439Z,10.71
2023-11-14T17:26:28.064Z,10.72
2023-11-14T17:28:54.462Z,10.73
2023-11-14T17:31:20.789Z,10.71
2023-11-14T17:33:47.089Z,10.66
2023-11-14T17:36:13.505Z,10.61
2023-11-14T17:38:39.941Z,10.59
2023-11-14T17:41:06.714Z,10.55
2023-11-14T17:43:33.083Z,10.52
2023-11-14T17:45:59.546Z,10.49
2023-11-14T17:48:26.043Z,10.40
2023-11-14T17:50:52.541Z,10.33
2023-11-14T17:53:19.051Z,10.32
2023-11-14T17:55:45.554Z,10.29
2023-11-14T17:58:11.976Z,10.22
2023-11-14T18:00:38.510Z,10.16
2023-11-14T18:03:05.114Z,10.15
2023-11-14T18:05:31.996Z,10.12
2023-11-14T18:07:58.488Z,10.04
2023-11-14T18:10:24.820Z,10.00
2023-11-14T18:12:51.348Z,9.91
2023-11-14T18:15:18.618Z,9.87
2023-11-14T18:17:45.323Z,9.82
2023-11-14T18:20:12.516Z,9.79
2023-11-14T18:22:39.031Z,9.74
2023-11-14T18:25:05.581Z,9.67
2023-11-14T18:27:31.920Z,9.69
2023-11-14T18:29:58.429Z,9.66
2023-11-14T18:32:24.864Z,9.63
2023-11-14T18:34:52.824Z,9.61
2023-11-14T18:37:19.160Z,9.57
2023-11-14T18:39:45.731Z,9.56
2023-11-14T18:42:12.075Z,9.55
2023-11-14T18:44:38.648Z,9.58
2023-11-14T18:47:07.825Z,9.54
2023-11-14T18:49:34.535Z,9.50
2023-11-14T18:52:00.928Z,9.49
2023-11-14T18:54:27.730Z,9.48
2023-11-14T18:56:54.116Z,9.48
2023-11-14T18:59:20.579Z,9.47
2023-11-14T19:01:47.013Z,9.46
2023-11-14T19:04:14.882Z,9.41
2023-11-14T19:06:41.335Z,9.43
2023-11-14T19:09:07.699Z,9.46
2023-11-14T19:11:34.119Z,9.49
2023-11-14T19:14:03.999Z,9.46
2023-11-14T19:16:31.188Z,9.43
2023-11-14T19:18:57.701Z,9.39
2023-11-14T19:21:43.772Z,9.34
2023-11-14T19:24:11.530Z,9.34
2023-11-14T19:26:38.269Z,9.35
2023-11-14T19:29:04.962Z,9.37
2023-11-14T19:31:31.687Z,9.36
2023-11-14T19:33:58.038Z,9.36
2023-11-14T19:36:24.398Z,9.38
2023-11-14T19:38:51.049Z,9.39
2023-11-14T19:41:17.576Z,9.40
2023-11-14T19:43:45.018Z,9.37
2023-11-14T19:46:12.440Z,9.38
2023-11-14T19:48:39.231Z,9.39
2023-11-14T19:51:05.686Z,9.38
2023-11-14T19:53:34.042Z,9.37
2023-11-14T19:56:00.663Z,9.39
2023-11-14T19:58:27.007Z,9.41
2023-11-14T20:00:53.471Z,9.45
2023-11-14T20:03:20.171Z,9.47
2023-11-14T20:05:46.682Z,9.49
2023-11-14T20:08:14.238Z,9.51
2023-11-14T20:10:40.530Z,9.47
2023-11-14T20:13:06.906Z,9.47
2023-11-14T20:15:33.322Z,9.49
2023-11-14T20:17:59.860Z,9.41
2023-11-14T20:20:26.274Z,9.35
2023-11-14T20:22:53.053Z,9.29
2023-11-14T20:25:19.872Z,9.31
2023-11-14T20:27:46.922Z,9.29
2023-11-14T20:30:13.634Z,9.27
2023-11-14T20:32:40.053Z,9.30
2023-11-14T20:35:06.727Z,9.29
2023-11-14T20:37:33.559Z,9.30
2023-11-14T20:40:00.308Z,9.32
2023-11-14T20:42:26.684Z,9.33
2023-11-14T20:44:53.105Z,9.29
2023-11-14T20:47:19.498Z,9.30
2023-11-14T20:49:45.917Z,9.27
2023-11-14T20:52:12.276Z,9.26
2023-11-14T20:54:38.634Z,9.31
2023-11-14T20:57:05.355Z,9.33
2023-11-14T20:59:32.094Z,9.35
2023-11-14T21:01:58.488Z,9.37
2023-11-14T21:04:25.186Z,9.38
2023-11-14T21:06:51.748Z,9.39
2023-11-14T21:09:18.712Z,9.43
2023-11-14T21:11:46.466Z,9.45
2023-11-14T21:14:13.300Z,9.44
2023-11-14T21:16:39.852Z,9.49
2023-11-14T21:19:06.280Z,9.46
2023-11-14T21:21:32.699Z,9.48
2023-11-14T21:23:59.204Z,9.52
2023-11-14T21:26:26.083Z,9.51
2023-11-14T21:28:52.509Z,9.49
2023-11-14T21:31:18.933Z,9.51
2023-11-14T21:33:45.318Z,9.53
2023-11-14T21:36:12.138Z,9.60
2023-11-14T21:38:39.052Z,9.59
2023-11-14T21:41:05.684Z,9.63
2023-11-14T21:43:32.126Z,9.66
2023-11-14T21:45:58.958Z,9.68
2023-11-14T21:48:25.454Z,9.79
2023-11-14T21:50:51.936Z,9.83
2023-11-14T21:53:18.380Z,9.83
2023-11-14T21:55:44.873Z,9.86
2023-11-14T21:58:11.800Z,9.89
2023-11-14T22:00:38.215Z,9.92
2023-11-14T22:03:04.736Z,10.00
2023-11-14T22:05:31.668Z,10.05
2023-11-14T22:07:58.008Z,10.07
2023-11-14T22:10:24.382Z,10.13
2023-11-14T22:12:50.813Z,10.15
2023-11-14T22:15:17.149Z,10.21
2023-11-14T22:17:43.601Z,10.28
2023-11-14T22:20:10.324Z,10.31
2023-11-14T22:22:36.783Z,10.32
2023-11-14T22:25:03.226Z,10.37
2023-11-14T22:27:29.655Z,10.44
2023-11-14T22:29:56.022Z,10.44
2023-11-14T22:32:22.709Z,10.50
2023-11-14T22:34:49.055Z,10.52
2023-11-14T22:37:15.403Z,10.55
2023-11-14T22:39:41.731Z,10.50
2023-11-14T22:42:08.074Z,10.48
2023-11-14T22:44:34.491Z,10.42
2023-11-14T22:47:00.899Z,10.40
2023-11-14T22:49:27.316Z,10.44
2023-11-14T22:51:53.945Z,10.48
2023-11-14T22:54:20.349Z,10.47
2023-11-14T22:56:46.828Z,10.57
2023-11-14T22:59:13.198Z,10.55
2023-11-14T23:01:39.627Z,10.55
2023-11-14T23:04:07.113Z,10.59
2023-11-14T23:06:33.420Z,10.52
2023-11-14T23:08:59.782Z,10.57
2023-11-14T23:11:26.205Z,10.53
2023-11-14T23:13:53.924Z,10.62
2023-11-14T23:16:20.454Z,10.69
2023-11-14T23:18:47.026Z,10.66
2023-11-14T23:21:13.382Z,10.63
2023-11-14T23:23:39.842Z,10.54
2023-11-14T23:26:06.259Z,10.70
2023-11-14T23:28:32.890Z,10.71
2023-11-14T23:30:59.331Z,10.70
2023-11-14T23:33:25.774Z,10.75
2023-11-14T23:35:52.128Z,10.74
2023-11-14T23:38:19.595Z,10.80
2023-11-14T23:40:46.010Z,10.79
2023-11-14T23:43:12.677Z,10.86
2023-11-14T23:45:39.173Z,10.85
2023-11-14T23:48:05.814Z,10.85
2023-11-14T23:50:32.366Z,10.84
2023-11-14T23:52:58.915Z,10.84
2023-11-14T23:55:25.781Z,10.82
2023-11-14T23:57:52.179Z,10.80
